sensor_id;sensor_type;location;lat;lon;timestamp;P1;durP1;ratioP1;P2;durP2;ratioP2
69736;SDS011;64476;55.004;73.342;2023-04-24T00:02:57;13.50;;;5.25;;
69736;SDS011;64476;55.004;73.342;2023-04-24T00:05:59;22.00;;;5.57;;
69736;SDS011;64476;55.004;73.342;2023-04-24T00:09:02;12.52;;;4.93;;
69736;SDS011;64476;55.004;73.342;2023-04-24T00:15:38;10.85;;;5.78;;
69736;SDS011;64476;55.004;73.342;2023-04-24T00:18:41;14.20;;;5.57;;
69736;SDS011;64476;55.004;73.342;2023-04-24T00:21:51;10.73;;;6.57;;
69736;SDS011;64476;55.004;73.342;2023-04-24T00:24:53;14.32;;;7.88;;
69736;SDS011;64476;55.004;73.342;2023-04-24T00:27:58;16.88;;;7.90;;
69736;SDS011;64476;55.004;73.342;2023-04-24T00:31:00;16.27;;;7.72;;
69736;SDS011;64476;55.004;73.342;2023-04-24T00:34:02;13.40;;;8.02;;
69736;SDS011;64476;55.004;73.342;2023-04-24T00:37:04;12.68;;;7.38;;
69736;SDS011;64476;55.004;73.342;2023-04-24T00:40:06;9.45;;;6.45;;
69736;SDS011;64476;55.004;73.342;2023-04-24T00:43:09;22.98;;;7.72;;
69736;SDS011;64476;55.004;73.342;2023-04-24T00:46:17;21.32;;;8.20;;
69736;SDS011;64476;55.004;73.342;2023-04-24T00:49:18;14.43;;;7.68;;
69736;SDS011;64476;55.004;73.342;2023-04-24T00:52:20;12.90;;;6.90;;
69736;SDS011;64476;55.004;73.342;2023-04-24T00:55:30;20.50;;;7.22;;
69736;SDS011;64476;55.004;73.342;2023-04-24T00:58:32;20.65;;;7.22;;
69736;SDS011;64476;55.004;73.342;2023-04-24T01:04:41;23.25;;;11.50;;
69736;SDS011;64476;55.004;73.342;2023-04-24T01:07:44;33.85;;;14.18;;
69736;SDS011;64476;55.004;73.342;2023-04-24T01:10:51;18.65;;;8.93;;
69736;SDS011;64476;55.004;73.342;2023-04-24T01:13:53;11.52;;;7.93;;
69736;SDS011;64476;55.004;73.342;2023-04-24T01:16:55;25.52;;;8.68;;
69736;SDS011;64476;55.004;73.342;2023-04-24T01:20:04;21.58;;;8.85;;
69736;SDS011;64476;55.004;73.342;2023-04-24T01:23:43;19.35;;;8.73;;
69736;SDS011;64476;55.004;73.342;2023-04-24T01:32:53;22.55;;;8.68;;
69736;SDS011;64476;55.004;73.342;2023-04-24T01:35:54;19.23;;;8.40;;
69736;SDS011;64476;55.004;73.342;2023-04-24T01:38:56;35.55;;;10.20;;
69736;SDS011;64476;55.004;73.342;2023-04-24T01:46:23;10.25;;;7.20;;
69736;SDS011;64476;55.004;73.342;2023-04-24T01:49:26;14.45;;;7.47;;
69736;SDS011;64476;55.004;73.342;2023-04-24T01:52:28;17.00;;;7.20;;
69736;SDS011;64476;55.004;73.342;2023-04-24T01:55:34;15.57;;;7.30;;
69736;SDS011;64476;55.004;73.342;2023-04-24T01:59:22;13.77;;;6.28;;
69736;SDS011;64476;55.004;73.342;2023-04-24T02:02:27;12.30;;;7.18;;
69736;SDS011;64476;55.004;73.342;2023-04-24T02:05:31;26.95;;;7.20;;
69736;SDS011;64476;55.004;73.342;2023-04-24T02:08:38;16.77;;;6.63;;
69736;SDS011;64476;55.004;73.342;2023-04-24T02:11:51;16.95;;;6.43;;
69736;SDS011;64476;55.004;73.342;2023-04-24T02:15:03;21.70;;;6.63;;
69736;SDS011;64476;55.004;73.342;2023-04-24T02:18:07;9.57;;;5.43;;
69736;SDS011;64476;55.004;73.342;2023-04-24T02:21:20;18.74;;;6.30;;
69736;SDS011;64476;55.004;73.342;2023-04-24T02:27:57;13.05;;;6.38;;
69736;SDS011;64476;55.004;73.342;2023-04-24T02:31:03;30.20;;;8.30;;
69736;SDS011;64476;55.004;73.342;2023-04-24T02:34:06;20.90;;;6.80;;
69736;SDS011;64476;55.004;73.342;2023-04-24T02:37:09;19.27;;;7.43;;
69736;SDS011;64476;55.004;73.342;2023-04-24T02:40:11;21.30;;;7.30;;
69736;SDS011;64476;55.004;73.342;2023-04-24T02:43:13;22.02;;;7.38;;
69736;SDS011;64476;55.004;73.342;2023-04-24T02:46:15;26.33;;;6.63;;
69736;SDS011;64476;55.004;73.342;2023-04-24T02:49:16;19.48;;;7.07;;
69736;SDS011;64476;55.004;73.342;2023-04-24T02:52:22;57.45;;;26.67;;
69736;SDS011;64476;55.004;73.342;2023-04-24T02:55:31;17.23;;;6.82;;
69736;SDS011;64476;55.004;73.342;2023-04-24T02:58:32;23.67;;;7.85;;
69736;SDS011;64476;55.004;73.342;2023-04-24T03:01:34;43.13;;;8.27;;
69736;SDS011;64476;55.004;73.342;2023-04-24T03:04:41;33.35;;;7.80;;
69736;SDS011;64476;55.004;73.342;2023-04-24T03:07:43;20.48;;;7.40;;
69736;SDS011;64476;55.004;73.342;2023-04-24T03:10:51;28.45;;;7.47;;
69736;SDS011;64476;55.004;73.342;2023-04-24T03:13:53;31.50;;;9.02;;
69736;SDS011;64476;55.004;73.342;2023-04-24T03:17:10;40.05;;;9.05;;
69736;SDS011;64476;55.004;73.342;2023-04-24T03:20:15;34.87;;;9.47;;
69736;SDS011;64476;55.004;73.342;2023-04-24T03:27:41;26.65;;;11.05;;
69736;SDS011;64476;55.004;73.342;2023-04-24T03:30:53;23.98;;;10.30;;
69736;SDS011;64476;55.004;73.342;2023-04-24T03:33:57;30.95;;;9.73;;
69736;SDS011;64476;55.004;73.342;2023-04-24T03:36:59;23.08;;;9.70;;
69736;SDS011;64476;55.004;73.342;2023-04-24T03:40:03;31.52;;;9.55;;
69736;SDS011;64476;55.004;73.342;2023-04-24T03:43:12;39.33;;;9.30;;
69736;SDS011;64476;55.004;73.342;2023-04-24T03:46:14;30.83;;;9.48;;
69736;SDS011;64476;55.004;73.342;2023-04-24T03:49:22;30.10;;;9.50;;
69736;SDS011;64476;55.004;73.342;2023-04-24T03:52:29;26.38;;;9.25;;
69736;SDS011;64476;55.004;73.342;2023-04-24T03:55:42;32.20;;;10.23;;
69736;SDS011;64476;55.004;73.342;2023-04-24T03:58:47;29.42;;;10.00;;
69736;SDS011;64476;55.004;73.342;2023-04-24T04:01:52;27.45;;;9.07;;
69736;SDS011;64476;55.004;73.342;2023-04-24T04:04:56;21.91;;;9.09;;
69736;SDS011;64476;55.004;73.342;2023-04-24T04:07:58;33.92;;;8.00;;
69736;SDS011;64476;55.004;73.342;2023-04-24T04:11:00;42.57;;;10.23;;
69736;SDS011;64476;55.004;73.342;2023-04-24T04:14:03;35.72;;;9.50;;
69736;SDS011;64476;55.004;73.342;2023-04-24T04:17:17;23.65;;;10.55;;
69736;SDS011;64476;55.004;73.342;2023-04-24T04:20:19;21.17;;;8.57;;
69736;SDS011;64476;55.004;73.342;2023-04-24T04:23:21;29.65;;;9.13;;
69736;SDS011;64476;55.004;73.342;2023-04-24T04:26:38;22.05;;;8.35;;
69736;SDS011;64476;55.004;73.342;2023-04-24T04:29:56;22.93;;;7.21;;
69736;SDS011;64476;55.004;73.342;2023-04-24T04:33:21;26.25;;;6.90;;
69736;SDS011;64476;55.004;73.342;2023-04-24T04:36:23;24.00;;;6.63;;
69736;SDS011;64476;55.004;73.342;2023-04-24T04:39:30;24.92;;;6.88;;
69736;SDS011;64476;55.004;73.342;2023-04-24T04:42:42;21.63;;;6.10;;
69736;SDS011;64476;55.004;73.342;2023-04-24T04:45:48;14.25;;;5.95;;
69736;SDS011;64476;55.004;73.342;2023-04-24T04:49:12;21.77;;;6.85;;
69736;SDS011;64476;55.004;73.342;2023-04-24T04:52:19;13.75;;;5.63;;
69736;SDS011;64476;55.004;73.342;2023-04-24T04:55:27;22.10;;;5.90;;
69736;SDS011;64476;55.004;73.342;2023-04-24T04:58:58;13.60;;;6.80;;
69736;SDS011;64476;55.004;73.342;2023-04-24T05:14:37;12.98;;;5.20;;
69736;SDS011;64476;55.004;73.342;2023-04-24T05:17:40;20.13;;;12.50;;
69736;SDS011;64476;55.004;73.342;2023-04-24T05:20:48;10.23;;;5.40;;
69736;SDS011;64476;55.004;73.342;2023-04-24T05:23:52;13.52;;;5.10;;
69736;SDS011;64476;55.004;73.342;2023-04-24T05:27:35;13.68;;;4.80;;
69736;SDS011;64476;55.004;73.342;2023-04-24T05:30:50;9.10;;;4.70;;
69736;SDS011;64476;55.004;73.342;2023-04-24T05:34:08;10.05;;;5.00;;
69736;SDS011;64476;55.004;73.342;2023-04-24T05:37:20;10.32;;;5.47;;
69736;SDS011;64476;55.004;73.342;2023-04-24T05:40:22;9.13;;;4.82;;
69736;SDS011;64476;55.004;73.342;2023-04-24T05:43:23;12.75;;;4.90;;
69736;SDS011;64476;55.004;73.342;2023-04-24T05:46:58;10.17;;;4.90;;
69736;SDS011;64476;55.004;73.342;2023-04-24T05:49:59;12.20;;;5.00;;
69736;SDS011;64476;55.004;73.342;2023-04-24T05:53:01;10.63;;;5.13;;
69736;SDS011;64476;55.004;73.342;2023-04-24T05:56:13;14.25;;;5.72;;
69736;SDS011;64476;55.004;73.342;2023-04-24T05:59:21;24.80;;;6.43;;
69736;SDS011;64476;55.004;73.342;2023-04-24T06:02:31;28.37;;;7.80;;
69736;SDS011;64476;55.004;73.342;2023-04-24T06:05:39;26.27;;;7.53;;
69736;SDS011;64476;55.004;73.342;2023-04-24T06:08:46;55.97;;;28.48;;
69736;SDS011;64476;55.004;73.342;2023-04-24T06:11:58;38.13;;;10.02;;
69736;SDS011;64476;55.004;73.342;2023-04-24T06:15:09;32.15;;;10.30;;
69736;SDS011;64476;55.004;73.342;2023-04-24T06:18:48;61.95;;;13.57;;
69736;SDS011;64476;55.004;73.342;2023-04-24T06:21:52;39.83;;;7.18;;
69736;SDS011;64476;55.004;73.342;2023-04-24T06:24:54;5.66;;;3.70;;
69736;SDS011;64476;55.004;73.342;2023-04-24T06:27:56;40.03;;;6.57;;
69736;SDS011;64476;55.004;73.342;2023-04-24T06:30:58;55.78;;;8.43;;
69736;SDS011;64476;55.004;73.342;2023-04-24T06:34:03;25.85;;;7.05;;
69736;SDS011;64476;55.004;73.342;2023-04-24T06:37:07;51.40;;;9.25;;
69736;SDS011;64476;55.004;73.342;2023-04-24T06:40:10;77.63;;;12.73;;
69736;SDS011;64476;55.004;73.342;2023-04-24T06:43:46;40.85;;;9.20;;
69736;SDS011;64476;55.004;73.342;2023-04-24T06:46:57;53.40;;;9.30;;
69736;SDS011;64476;55.004;73.342;2023-04-24T06:54:11;28.30;;;6.13;;
69736;SDS011;64476;55.004;73.342;2023-04-24T06:57:13;43.63;;;6.18;;
69736;SDS011;64476;55.004;73.342;2023-04-24T07:00:30;22.50;;;5.82;;
69736;SDS011;64476;55.004;73.342;2023-04-24T07:03:32;33.65;;;6.63;;
69736;SDS011;64476;55.004;73.342;2023-04-24T07:06:33;48.95;;;8.80;;
69736;SDS011;64476;55.004;73.342;2023-04-24T07:18:06;63.00;;;11.63;;
69736;SDS011;64476;55.004;73.342;2023-04-24T07:24:52;37.92;;;7.24;;
69736;SDS011;64476;55.004;73.342;2023-04-24T07:27:54;21.30;;;5.95;;
69736;SDS011;64476;55.004;73.342;2023-04-24T07:30:55;80.40;;;8.10;;
69736;SDS011;64476;55.004;73.342;2023-04-24T07:33:58;77.70;;;12.93;;
69736;SDS011;64476;55.004;73.342;2023-04-24T07:37:00;46.28;;;8.65;;
69736;SDS011;64476;55.004;73.342;2023-04-24T07:44:17;57.80;;;9.90;;
69736;SDS011;64476;55.004;73.342;2023-04-24T07:47:19;78.55;;;9.23;;
69736;SDS011;64476;55.004;73.342;2023-04-24T07:50:21;54.70;;;10.18;;
69736;SDS011;64476;55.004;73.342;2023-04-24T07:57:48;31.60;;;9.35;;
69736;SDS011;64476;55.004;73.342;2023-04-24T08:00:51;76.57;;;11.23;;
69736;SDS011;64476;55.004;73.342;2023-04-24T08:03:52;62.78;;;13.50;;
69736;SDS011;64476;55.004;73.342;2023-04-24T08:06:54;89.37;;;15.57;;
69736;SDS011;64476;55.004;73.342;2023-04-24T08:10:01;41.30;;;6.90;;
69736;SDS011;64476;55.004;73.342;2023-04-24T08:13:03;47.05;;;7.35;;
69736;SDS011;64476;55.004;73.342;2023-04-24T08:24:29;40.60;;;9.80;;
69736;SDS011;64476;55.004;73.342;2023-04-24T08:39:52;33.88;;;8.27;;
69736;SDS011;64476;55.004;73.342;2023-04-24T08:42:54;27.65;;;7.25;;
69736;SDS011;64476;55.004;73.342;2023-04-24T08:50:35;27.55;;;7.88;;
69736;SDS011;64476;55.004;73.342;2023-04-24T08:57:52;22.15;;;5.13;;
69736;SDS011;64476;55.004;73.342;2023-04-24T09:00:55;14.90;;;4.40;;
69736;SDS011;64476;55.004;73.342;2023-04-24T09:08:12;9.63;;;2.90;;
69736;SDS011;64476;55.004;73.342;2023-04-24T09:19:40;28.15;;;7.00;;
69736;SDS011;64476;55.004;73.342;2023-04-24T09:22:42;30.55;;;3.80;;
69736;SDS011;64476;55.004;73.342;2023-04-24T09:25:44;14.13;;;2.92;;
69736;SDS011;64476;55.004;73.342;2023-04-24T09:28:49;11.15;;;5.13;;
69736;SDS011;64476;55.004;73.342;2023-04-24T09:31:55;8.10;;;2.63;;
69736;SDS011;64476;55.004;73.342;2023-04-24T09:35:06;43.30;;;3.95;;
69736;SDS011;64476;55.004;73.342;2023-04-24T09:42:28;23.67;;;3.67;;
69736;SDS011;64476;55.004;73.342;2023-04-24T09:49:15;42.38;;;6.20;;
69736;SDS011;64476;55.004;73.342;2023-04-24T09:52:21;60.65;;;6.85;;
69736;SDS011;64476;55.004;73.342;2023-04-24T09:55:23;29.00;;;5.60;;
69736;SDS011;64476;55.004;73.342;2023-04-24T09:58:26;78.25;;;5.32;;
69736;SDS011;64476;55.004;73.342;2023-04-24T10:01:32;23.07;;;4.23;;
69736;SDS011;64476;55.004;73.342;2023-04-24T10:04:55;14.01;;;3.61;;
69736;SDS011;64476;55.004;73.342;2023-04-24T10:08:04;32.22;;;4.07;;
69736;SDS011;64476;55.004;73.342;2023-04-24T10:11:14;39.60;;;3.97;;
69736;SDS011;64476;55.004;73.342;2023-04-24T10:14:20;37.47;;;4.00;;
69736;SDS011;64476;55.004;73.342;2023-04-24T10:17:23;16.73;;;3.87;;
69736;SDS011;64476;55.004;73.342;2023-04-24T10:20:37;15.87;;;3.00;;
69736;SDS011;64476;55.004;73.342;2023-04-24T10:23:49;44.47;;;5.20;;
69736;SDS011;64476;55.004;73.342;2023-04-24T10:30:27;90.45;;;9.00;;
69736;SDS011;64476;55.004;73.342;2023-04-24T10:37:50;79.88;;;6.32;;
69736;SDS011;64476;55.004;73.342;2023-04-24T10:41:06;35.63;;;5.67;;
69736;SDS011;64476;55.004;73.342;2023-04-24T10:44:11;12.70;;;3.35;;
69736;SDS011;64476;55.004;73.342;2023-04-24T10:47:14;28.35;;;4.93;;
69736;SDS011;64476;55.004;73.342;2023-04-24T10:50:16;16.57;;;3.07;;
69736;SDS011;64476;55.004;73.342;2023-04-24T10:53:21;27.88;;;5.18;;
69736;SDS011;64476;55.004;73.342;2023-04-24T11:01:23;20.73;;;2.55;;
69736;SDS011;64476;55.004;73.342;2023-04-24T11:04:32;13.65;;;2.13;;
69736;SDS011;64476;55.004;73.342;2023-04-24T11:11:28;17.92;;;2.28;;
69736;SDS011;64476;55.004;73.342;2023-04-24T11:17:58;24.58;;;3.38;;
69736;SDS011;64476;55.004;73.342;2023-04-24T11:21:09;16.83;;;2.73;;
69736;SDS011;64476;55.004;73.342;2023-04-24T11:27:31;30.10;;;3.63;;
69736;SDS011;64476;55.004;73.342;2023-04-24T11:30:39;26.83;;;2.72;;
69736;SDS011;64476;55.004;73.342;2023-04-24T11:37:58;76.95;;;5.30;;
69736;SDS011;64476;55.004;73.342;2023-04-24T11:41:04;30.83;;;3.40;;
69736;SDS011;64476;55.004;73.342;2023-04-24T11:44:07;79.40;;;7.93;;
69736;SDS011;64476;55.004;73.342;2023-04-24T11:47:10;40.75;;;5.07;;
69736;SDS011;64476;55.004;73.342;2023-04-24T11:50:12;113.20;;;9.02;;
69736;SDS011;64476;55.004;73.342;2023-04-24T11:53:16;83.70;;;10.95;;
69736;SDS011;64476;55.004;73.342;2023-04-24T11:56:22;44.80;;;6.05;;
69736;SDS011;64476;55.004;73.342;2023-04-24T11:59:25;26.77;;;5.72;;
69736;SDS011;64476;55.004;73.342;2023-04-24T12:02:27;37.00;;;6.25;;
69736;SDS011;64476;55.004;73.342;2023-04-24T12:05:36;37.50;;;4.50;;
69736;SDS011;64476;55.004;73.342;2023-04-24T12:08:39;40.95;;;3.15;;
69736;SDS011;64476;55.004;73.342;2023-04-24T12:11:52;4.90;;;2.35;;
69736;SDS011;64476;55.004;73.342;2023-04-24T12:18:27;25.55;;;2.25;;
69736;SDS011;64476;55.004;73.342;2023-04-24T12:21:29;4.82;;;2.20;;
69736;SDS011;64476;55.004;73.342;2023-04-24T12:24:32;35.90;;;2.83;;
69736;SDS011;64476;55.004;73.342;2023-04-24T12:27:39;14.90;;;2.25;;
69736;SDS011;64476;55.004;73.342;2023-04-24T12:30:42;18.10;;;2.63;;
69736;SDS011;64476;55.004;73.342;2023-04-24T12:37:24;23.52;;;2.15;;
69736;SDS011;64476;55.004;73.342;2023-04-24T12:44:11;23.15;;;1.90;;
69736;SDS011;64476;55.004;73.342;2023-04-24T12:47:14;16.90;;;2.13;;
69736;SDS011;64476;55.004;73.342;2023-04-24T12:50:15;6.90;;;2.22;;
69736;SDS011;64476;55.004;73.342;2023-04-24T12:53:17;15.75;;;2.58;;
69736;SDS011;64476;55.004;73.342;2023-04-24T12:56:19;14.18;;;3.03;;
69736;SDS011;64476;55.004;73.342;2023-04-24T12:59:21;25.00;;;2.88;;
69736;SDS011;64476;55.004;73.342;2023-04-24T13:02:34;6.38;;;1.98;;
69736;SDS011;64476;55.004;73.342;2023-04-24T13:05:36;13.65;;;2.50;;
69736;SDS011;64476;55.004;73.342;2023-04-24T13:08:38;6.53;;;1.88;;
69736;SDS011;64476;55.004;73.342;2023-04-24T13:11:39;11.93;;;2.13;;
69736;SDS011;64476;55.004;73.342;2023-04-24T13:14:52;6.30;;;2.14;;
69736;SDS011;64476;55.004;73.342;2023-04-24T13:17:54;18.33;;;2.92;;
69736;SDS011;64476;55.004;73.342;2023-04-24T13:21:12;4.53;;;1.75;;
69736;SDS011;64476;55.004;73.342;2023-04-24T13:24:14;20.17;;;2.25;;
69736;SDS011;64476;55.004;73.342;2023-04-24T13:27:17;11.70;;;1.85;;
69736;SDS011;64476;55.004;73.342;2023-04-24T13:30:24;5.65;;;1.70;;
69736;SDS011;64476;55.004;73.342;2023-04-24T13:36:55;10.05;;;2.15;;
69736;SDS011;64476;55.004;73.342;2023-04-24T13:40:03;17.63;;;3.10;;
69736;SDS011;64476;55.004;73.342;2023-04-24T13:43:13;15.90;;;2.17;;
69736;SDS011;64476;55.004;73.342;2023-04-24T13:46:27;14.73;;;2.33;;
69736;SDS011;64476;55.004;73.342;2023-04-24T13:49:29;12.55;;;2.38;;
69736;SDS011;64476;55.004;73.342;2023-04-24T13:52:44;6.75;;;2.58;;
69736;SDS011;64476;55.004;73.342;2023-04-24T13:56:18;52.70;;;4.20;;
69736;SDS011;64476;55.004;73.342;2023-04-24T13:59:20;41.42;;;4.03;;
69736;SDS011;64476;55.004;73.342;2023-04-24T14:02:22;5.63;;;3.15;;
69736;SDS011;64476;55.004;73.342;2023-04-24T14:05:24;20.80;;;3.57;;
69736;SDS011;64476;55.004;73.342;2023-04-24T14:08:26;10.55;;;2.30;;
69736;SDS011;64476;55.004;73.342;2023-04-24T14:11:28;16.75;;;2.40;;
69736;SDS011;64476;55.004;73.342;2023-04-24T14:14:35;8.15;;;3.63;;
69736;SDS011;64476;55.004;73.342;2023-04-24T14:17:36;19.73;;;3.65;;
69736;SDS011;64476;55.004;73.342;2023-04-24T14:20:51;6.03;;;2.53;;
69736;SDS011;64476;55.004;73.342;2023-04-24T14:24:10;35.85;;;4.90;;
69736;SDS011;64476;55.004;73.342;2023-04-24T14:27:12;28.25;;;3.53;;
69736;SDS011;64476;55.004;73.342;2023-04-24T14:34:06;25.52;;;2.97;;
69736;SDS011;64476;55.004;73.342;2023-04-24T14:37:07;4.65;;;1.90;;
69736;SDS011;64476;55.004;73.342;2023-04-24T14:40:09;4.78;;;2.20;;
69736;SDS011;64476;55.004;73.342;2023-04-24T14:43:11;6.38;;;2.10;;
69736;SDS011;64476;55.004;73.342;2023-04-24T14:46:15;39.20;;;3.83;;
69736;SDS011;64476;55.004;73.342;2023-04-24T14:52:29;6.83;;;2.43;;
69736;SDS011;64476;55.004;73.342;2023-04-24T14:55:31;3.58;;;2.10;;
69736;SDS011;64476;55.004;73.342;2023-04-24T14:58:46;5.57;;;1.80;;
69736;SDS011;64476;55.004;73.342;2023-04-24T15:01:53;9.23;;;2.05;;
69736;SDS011;64476;55.004;73.342;2023-04-24T15:04:58;3.40;;;2.10;;
69736;SDS011;64476;55.004;73.342;2023-04-24T15:08:00;6.47;;;1.85;;
69736;SDS011;64476;55.004;73.342;2023-04-24T15:11:02;12.55;;;1.92;;
69736;SDS011;64476;55.004;73.342;2023-04-24T15:14:15;7.80;;;1.95;;
69736;SDS011;64476;55.004;73.342;2023-04-24T15:17:22;14.30;;;2.65;;
69736;SDS011;64476;55.004;73.342;2023-04-24T15:20:29;13.82;;;2.35;;
69736;SDS011;64476;55.004;73.342;2023-04-24T15:23:41;9.35;;;1.60;;
69736;SDS011;64476;55.004;73.342;2023-04-24T15:26:43;3.88;;;2.00;;
69736;SDS011;64476;55.004;73.342;2023-04-24T15:34:03;19.73;;;2.65;;
69736;SDS011;64476;55.004;73.342;2023-04-24T15:37:05;17.58;;;2.38;;
69736;SDS011;64476;55.004;73.342;2023-04-24T15:40:11;6.65;;;2.92;;
69736;SDS011;64476;55.004;73.342;2023-04-24T15:43:58;10.68;;;2.80;;
69736;SDS011;64476;55.004;73.342;2023-04-24T15:47:00;6.00;;;2.25;;
69736;SDS011;64476;55.004;73.342;2023-04-24T15:50:03;33.28;;;4.53;;
69736;SDS011;64476;55.004;73.342;2023-04-24T15:53:06;14.73;;;3.13;;
69736;SDS011;64476;55.004;73.342;2023-04-24T15:56:14;8.02;;;3.30;;
69736;SDS011;64476;55.004;73.342;2023-04-24T15:59:16;4.88;;;2.50;;
69736;SDS011;64476;55.004;73.342;2023-04-24T16:02:19;8.90;;;2.85;;
69736;SDS011;64476;55.004;73.342;2023-04-24T16:05:21;15.50;;;3.80;;
69736;SDS011;64476;55.004;73.342;2023-04-24T16:08:26;3.42;;;2.10;;
69736;SDS011;64476;55.004;73.342;2023-04-24T16:11:28;6.87;;;2.10;;
69736;SDS011;64476;55.004;73.342;2023-04-24T16:18:41;5.72;;;2.25;;
69736;SDS011;64476;55.004;73.342;2023-04-24T16:21:54;19.83;;;3.05;;
69736;SDS011;64476;55.004;73.342;2023-04-24T16:24:56;6.13;;;2.34;;
69736;SDS011;64476;55.004;73.342;2023-04-24T16:28:08;5.40;;;2.40;;
69736;SDS011;64476;55.004;73.342;2023-04-24T16:31:10;4.55;;;2.05;;
69736;SDS011;64476;55.004;73.342;2023-04-24T16:34:15;7.00;;;2.13;;
69736;SDS011;64476;55.004;73.342;2023-04-24T16:37:17;7.63;;;2.33;;
69736;SDS011;64476;55.004;73.342;2023-04-24T16:40:19;9.82;;;2.03;;
69736;SDS011;64476;55.004;73.342;2023-04-24T16:43:23;6.05;;;2.60;;
69736;SDS011;64476;55.004;73.342;2023-04-24T16:46:25;4.75;;;2.03;;
69736;SDS011;64476;55.004;73.342;2023-04-24T16:49:27;19.77;;;3.63;;
69736;SDS011;64476;55.004;73.342;2023-04-24T16:52:41;11.20;;;3.30;;
69736;SDS011;64476;55.004;73.342;2023-04-24T16:55:44;11.15;;;3.00;;
69736;SDS011;64476;55.004;73.342;2023-04-24T16:58:49;6.80;;;2.90;;
69736;SDS011;64476;55.004;73.342;2023-04-24T17:01:51;6.63;;;2.85;;
69736;SDS011;64476;55.004;73.342;2023-04-24T17:04:53;6.53;;;4.13;;
69736;SDS011;64476;55.004;73.342;2023-04-24T17:07:54;11.30;;;4.43;;
69736;SDS011;64476;55.004;73.342;2023-04-24T17:10:58;8.50;;;3.87;;
69736;SDS011;64476;55.004;73.342;2023-04-24T17:13:59;6.47;;;3.70;;
69736;SDS011;64476;55.004;73.342;2023-04-24T17:17:01;5.00;;;3.70;;
69736;SDS011;64476;55.004;73.342;2023-04-24T17:20:11;15.07;;;4.32;;
69736;SDS011;64476;55.004;73.342;2023-04-24T17:23:13;7.78;;;3.80;;
69736;SDS011;64476;55.004;73.342;2023-04-24T17:29:52;4.25;;;2.65;;
69736;SDS011;64476;55.004;73.342;2023-04-24T17:33:04;5.70;;;3.22;;
69736;SDS011;64476;55.004;73.342;2023-04-24T17:36:06;11.68;;;3.75;;
69736;SDS011;64476;55.004;73.342;2023-04-24T17:39:08;3.65;;;2.97;;
69736;SDS011;64476;55.004;73.342;2023-04-24T17:42:10;6.43;;;3.10;;
69736;SDS011;64476;55.004;73.342;2023-04-24T17:45:12;4.50;;;3.10;;
69736;SDS011;64476;55.004;73.342;2023-04-24T17:48:14;16.83;;;2.90;;
69736;SDS011;64476;55.004;73.342;2023-04-24T17:51:19;8.85;;;3.30;;
69736;SDS011;64476;55.004;73.342;2023-04-24T17:54:20;7.95;;;3.05;;
69736;SDS011;64476;55.004;73.342;2023-04-24T17:57:27;5.57;;;3.47;;
69736;SDS011;64476;55.004;73.342;2023-04-24T18:00:29;10.20;;;2.80;;
69736;SDS011;64476;55.004;73.342;2023-04-24T18:03:31;5.63;;;2.67;;
69736;SDS011;64476;55.004;73.342;2023-04-24T18:06:34;7.03;;;2.78;;
69736;SDS011;64476;55.004;73.342;2023-04-24T18:13:09;5.22;;;2.80;;
69736;SDS011;64476;55.004;73.342;2023-04-24T18:16:11;5.35;;;3.45;;
69736;SDS011;64476;55.004;73.342;2023-04-24T18:19:18;10.50;;;3.35;;
69736;SDS011;64476;55.004;73.342;2023-04-24T18:22:19;24.40;;;2.67;;
69736;SDS011;64476;55.004;73.342;2023-04-24T18:25:21;10.80;;;3.05;;
69736;SDS011;64476;55.004;73.342;2023-04-24T18:28:26;4.25;;;2.67;;
69736;SDS011;64476;55.004;73.342;2023-04-24T18:31:43;2.30;;;2.13;;
69736;SDS011;64476;55.004;73.342;2023-04-24T18:34:53;4.95;;;2.90;;
69736;SDS011;64476;55.004;73.342;2023-04-24T18:37:55;7.95;;;2.55;;
69736;SDS011;64476;55.004;73.342;2023-04-24T18:40:57;12.35;;;2.90;;
69736;SDS011;64476;55.004;73.342;2023-04-24T18:43:59;8.50;;;2.40;;
69736;SDS011;64476;55.004;73.342;2023-04-24T18:47:05;12.43;;;3.17;;
69736;SDS011;64476;55.004;73.342;2023-04-24T18:50:14;10.07;;;2.85;;
69736;SDS011;64476;55.004;73.342;2023-04-24T18:53:42;6.82;;;3.03;;
69736;SDS011;64476;55.004;73.342;2023-04-24T18:56:47;7.00;;;2.90;;
69736;SDS011;64476;55.004;73.342;2023-04-24T19:03:25;18.40;;;3.47;;
69736;SDS011;64476;55.004;73.342;2023-04-24T19:06:28;9.00;;;3.17;;
69736;SDS011;64476;55.004;73.342;2023-04-24T19:09:29;6.40;;;3.17;;
69736;SDS011;64476;55.004;73.342;2023-04-24T19:12:31;10.07;;;3.58;;
69736;SDS011;64476;55.004;73.342;2023-04-24T19:15:44;10.05;;;3.92;;
69736;SDS011;64476;55.004;73.342;2023-04-24T19:18:50;16.92;;;3.90;;
69736;SDS011;64476;55.004;73.342;2023-04-24T19:21:52;15.47;;;4.47;;
69736;SDS011;64476;55.004;73.342;2023-04-24T19:24:58;6.50;;;4.40;;
69736;SDS011;64476;55.004;73.342;2023-04-24T19:28:05;13.75;;;5.30;;
69736;SDS011;64476;55.004;73.342;2023-04-24T19:31:07;12.30;;;4.50;;
69736;SDS011;64476;55.004;73.342;2023-04-24T19:34:09;27.60;;;5.88;;
69736;SDS011;64476;55.004;73.342;2023-04-24T19:37:15;17.45;;;4.80;;
69736;SDS011;64476;55.004;73.342;2023-04-24T19:40:22;7.32;;;4.63;;
69736;SDS011;64476;55.004;73.342;2023-04-24T19:43:28;6.38;;;4.15;;
69736;SDS011;64476;55.004;73.342;2023-04-24T19:46:36;10.50;;;3.22;;
69736;SDS011;64476;55.004;73.342;2023-04-24T19:49:40;6.47;;;3.13;;
69736;SDS011;64476;55.004;73.342;2023-04-24T19:52:44;5.75;;;3.58;;
69736;SDS011;64476;55.004;73.342;2023-04-24T19:55:46;9.35;;;3.00;;
69736;SDS011;64476;55.004;73.342;2023-04-24T19:58:48;5.00;;;2.90;;
69736;SDS011;64476;55.004;73.342;2023-04-24T20:01:55;9.33;;;3.83;;
69736;SDS011;64476;55.004;73.342;2023-04-24T20:04:57;6.85;;;2.90;;
69736;SDS011;64476;55.004;73.342;2023-04-24T20:07:58;5.15;;;3.40;;
69736;SDS011;64476;55.004;73.342;2023-04-24T20:11:11;15.60;;;3.75;;
69736;SDS011;64476;55.004;73.342;2023-04-24T20:14:14;5.60;;;3.83;;
69736;SDS011;64476;55.004;73.342;2023-04-24T20:17:23;10.63;;;3.78;;
69736;SDS011;64476;55.004;73.342;2023-04-24T20:20:25;13.02;;;4.07;;
69736;SDS011;64476;55.004;73.342;2023-04-24T20:23:29;11.45;;;4.15;;
69736;SDS011;64476;55.004;73.342;2023-04-24T20:26:41;24.08;;;7.68;;
69736;SDS011;64476;55.004;73.342;2023-04-24T20:29:51;27.98;;;7.64;;
69736;SDS011;64476;55.004;73.342;2023-04-24T20:32:56;28.95;;;7.07;;
69736;SDS011;64476;55.004;73.342;2023-04-24T20:36:45;32.63;;;7.65;;
69736;SDS011;64476;55.004;73.342;2023-04-24T20:39:51;36.20;;;7.03;;
69736;SDS011;64476;55.004;73.342;2023-04-24T20:42:53;14.43;;;4.40;;
69736;SDS011;64476;55.004;73.342;2023-04-24T20:45:56;14.27;;;3.80;;
69736;SDS011;64476;55.004;73.342;2023-04-24T20:49:03;21.27;;;4.78;;
69736;SDS011;64476;55.004;73.342;2023-04-24T20:52:05;8.48;;;4.53;;
69736;SDS011;64476;55.004;73.342;2023-04-24T20:55:08;14.35;;;4.82;;
69736;SDS011;64476;55.004;73.342;2023-04-24T20:58:10;12.40;;;4.53;;
69736;SDS011;64476;55.004;73.342;2023-04-24T21:01:23;15.53;;;5.17;;
69736;SDS011;64476;55.004;73.342;2023-04-24T21:08:17;21.92;;;7.88;;
69736;SDS011;64476;55.004;73.342;2023-04-24T21:11:51;24.75;;;6.65;;
69736;SDS011;64476;55.004;73.342;2023-04-24T21:14:53;14.13;;;6.68;;
69736;SDS011;64476;55.004;73.342;2023-04-24T21:17:55;12.88;;;6.07;;